Time;durP1;ratioP1;P1;durP2;ratioP2;P2;SDS_P1;SDS_P2;PMS_P1;PMS_P2;Temp;Humidity;BMP_temperature;BMP_pressure;BME280_temperature;BME280_humidity;BME280_pressure;Samples;Min_cycle;Max_cycle;Signal;HPM_P1;HPM_P2
2022/09/18 00:00:01;;;;;;;5.40;1.40;;;;;;;10.86;100.00;100931.72;6150244;23;20177;-78
2022/09/18 00:02:26;;;;;;;4.63;1.20;;;;;;;11.14;100.00;100963.03;6150780;23;20261;-77
2022/09/18 00:04:52;;;;;;;6.70;1.70;;;;;;;10.56;100.00;100844.47;6145663;23;20954;-66
2022/09/18 00:07:18;;;;;;;4.30;1.40;;;;;;;12.42;100.00;101165.72;6149947;23;20157;-66
2022/09/18 00:09:44;;;;;;;3.23;1.30;;;;;;;12.03;100.00;101103.72;6151351;23;20746;-66
2022/09/18 00:12:10;;;;;;;7.50;1.43;;;;;;;12.39;100.00;101163.44;6149826;23;20377;-67
2022/09/18 00:14:35;;;;;;;4.93;1.43;;;;;;;12.29;100.00;101141.44;6151058;23;20404;-66
2022/09/18 00:17:01;;;;;;;6.10;1.30;;;;;;;11.91;100.00;101112.38;6148666;23;20157;-66
2022/09/18 00:19:27;;;;;;;3.97;1.27;;;;;;;12.20;100.00;101140.81;6151603;23;20208;-67
2022/09/18 00:21:52;;;;;;;4.57;1.57;;;;;;;12.34;100.00;101138.16;6149161;23;20384;-67
2022/09/18 00:24:18;;;;;;;5.50;1.60;;;;;;;12.39;100.00;101147.28;6123505;23;20177;-66
2022/09/18 00:26:45;;;;;;;3.73;1.50;;;;;;;12.14;100.00;101116.59;6149840;23;20184;-66
2022/09/18 00:29:12;;;;;;;7.00;1.73;;;;;;;12.69;100.00;101151.47;6150310;23;20387;-67
2022/09/18 00:31:38;;;;;;;4.47;1.43;;;;;;;12.69;100.00;101138.84;6147528;23;20381;-67
2022/09/18 00:34:06;;;;;;;5.60;1.40;;;;;;;12.15;100.00;101088.66;6147084;23;20401;-66
2022/09/18 00:36:32;;;;;;;3.67;1.20;;;;;;;12.58;100.00;101169.91;6147045;23;20381;-66
2022/09/18 00:38:58;;;;;;;6.97;1.40;;;;;;;12.58;100.00;101169.03;6147736;23;20427;-66
2022/09/18 00:41:30;;;;;;;8.60;1.50;;;;;;;11.70;100.00;101064.09;6147782;23;20376;-67
2022/09/18 00:44:28;;;;;;;6.97;1.90;;;;;;;12.16;100.00;101171.00;6119771;23;20177;-66
2022/09/18 00:46:58;;;;;;;7.87;2.03;;;;;;;11.49;100.00;101090.03;6146585;23;20417;-66
2022/09/18 00:49:26;;;;;;;13.47;3.23;;;;;;;11.20;100.00;101076.88;6148075;23;20385;-66
2022/09/18 00:51:54;;;;;;;6.47;1.87;;;;;;;11.74;100.00;101180.88;6120561;23;20923;-66
2022/09/18 00:54:37;;;;;;;12.33;1.50;;;;;;;11.23;100.00;101092.56;6147847;23;20441;-67
2022/09/18 00:57:17;;;;;;;7.67;1.50;;;;;;;11.28;100.00;101071.31;6121760;23;20501;-66
2022/09/18 00:59:45;;;;;;;8.57;1.47;;;;;;;11.87;100.00;101180.19;6122434;23;20749;-66
2022/09/18 01:02:11;;;;;;;6.37;1.23;;;;;;;11.55;100.00;101096.47;6120646;23;20389;-67
2022/09/18 01:04:37;;;;;;;6.63;1.40;;;;;;;11.76;100.00;101173.47;6122397;23;20412;-67
2022/09/18 01:07:19;;;;;;;3.50;1.10;;;;;;;11.90;100.00;101182.47;6121188;23;20391;-66
2022/09/18 01:09:54;;;;;;;6.40;1.57;;;;;;;11.88;100.00;101169.22;6120956;23;20761;-66
2022/09/18 01:12:32;;;;;;;5.53;1.50;;;;;;;11.92;100.00;101173.19;6146955;23;20427;-67
2022/09/18 01:15:03;;;;;;;4.10;1.40;;;;;;;11.94;100.00;101183.72;6121111;23;20427;-67
2022/09/18 01:17:29;;;;;;;4.70;1.10;;;;;;;11.44;100.00;101084.44;6118718;23;20804;-67
2022/09/18 01:20:28;;;;;;;6.13;1.80;;;;;;;12.09;100.00;101171.00;6121421;23;20548;-66
2022/09/18 01:23:22;;;;;;;5.50;1.30;;;;;;;11.29;100.00;101115.97;6111362;23;21140;-66
2022/09/18 01:26:00;;;;;;;8.57;1.70;;;;;;;11.97;100.00;101173.38;6112231;23;20381;-66
2022/09/18 01:28:47;;;;;;;6.53;1.40;;;;;;;11.48;100.00;101064.19;6149282;23;20353;-66
2022/09/18 01:31:19;;;;;;;8.17;1.50;;;;;;;12.14;100.00;101173.88;6122823;23;20388;-66
2022/09/18 01:33:51;;;;;;;6.80;1.77;;;;;;;11.54;100.00;101082.22;6146356;23;20532;-66
2022/09/18 01:36:20;;;;;;;5.50;1.43;;;;;;;11.44;100.00;101057.56;6148249;23;21143;-66
2022/09/18 01:39:01;;;;;;;11.17;1.80;;;;;;;11.52;100.00;101072.69;6120770;23;20742;-66
2022/09/18 01:41:29;;;;;;;7.53;1.30;;;;;;;11.57;100.00;101067.56;6120791;23;20373;-66
2022/09/18 01:44:09;;;;;;;6.10;1.30;;;;;;;11.69;100.00;101054.38;6119797;23;20404;-66
2022/09/18 01:46:45;;;;;;;6.50;1.50;;;;;;;11.93;100.00;101063.78;6121285;23;20373;-67
2022/09/18 01:49:14;;;;;;;3.33;1.20;;;;;;;12.41;100.00;101133.63;6150977;23;20364;-66
2022/09/18 01:51:55;;;;;;;3.40;1.17;;;;;;;12.79;100.00;101151.91;6121378;23;20479;-66
2022/09/18 01:54:25;;;;;;;2.67;1.20;;;;;;;12.16;100.00;101044.63;6122408;23;20416;-67
2022/09/18 01:57:01;;;;;;;3.63;1.20;;;;;;;12.36;100.00;101079.63;6150040;23;20847;-66
2022/09/18 01:59:33;;;;;;;5.10;1.50;;;;;;;12.86;100.00;101158.13;6148120;23;20418;-66
2022/09/18 02:02:02;;;;;;;6.77;1.60;;;;;;;12.17;100.00;101079.34;6147835;23;20375;-67
2022/09/18 02:04:32;;;;;;;7.13;1.70;;;;;;;12.66;100.00;101171.56;6149082;23;20413;-67
2022/09/18 02:07:27;;;;;;;3.63;1.13;;;;;;;12.67;100.00;101157.09;6151027;23;20839;-67
2022/09/18 02:09:53;;;;;;;3.00;1.13;;;;;;;12.64;100.00;101158.31;6149330;23;20415;-67
2022/09/18 02:12:22;;;;;;;3.03;1.30;;;;;;;11.75;100.00;101053.59;6146733;23;20381;-67
2022/09/18 02:14:53;;;;;;;3.93;1.30;;;;;;;12.15;100.00;101107.47;6148363;23;20196;-67
2022/09/18 02:17:27;;;;;;;4.37;1.10;;;;;;;12.01;100.00;101095.88;6149481;23;20369;-67
2022/09/18 02:19:58;;;;;;;2.03;1.00;;;;;;;12.40;100.00;101138.16;6123425;23;20431;-66
2022/09/18 02:22:29;;;;;;;3.80;1.43;;;;;;;12.40;100.00;101151.63;6150751;23;20376;-67
2022/09/18 02:24:58;;;;;;;2.37;1.00;;;;;;;11.57;100.00;101013.84;6125337;23;20997;-66
2022/09/18 02:27:25;;;;;;;7.20;1.60;;;;;;;11.88;100.00;101031.31;6125072;23;20389;-67
2022/09/18 02:29:52;;;;;;;4.23;1.30;;;;;;;11.46;100.00;100984.88;6123817;23;20432;-67
2022/09/18 02:32:18;;;;;;;3.90;1.10;;;;;;;11.68;100.00;101079.59;6123725;23;20467;-67
2022/09/18 02:34:43;;;;;;;4.00;1.03;;;;;;;12.29;100.00;101154.91;6150182;23;20487;-66
2022/09/18 02:37:35;;;;;;;2.10;1.20;;;;;;;12.38;100.00;101150.16;6151754;23;20494;-66
2022/09/18 02:40:38;;;;;;;5.03;1.43;;;;;;;12.12;100.00;101154.44;6151968;23;20177;-66
2022/09/18 02:43:25;;;;;;;1.57;0.90;;;;;;;12.25;100.00;101142.91;6125964;23;20392;-66
2022/09/18 02:46:11;;;;;;;3.27;1.33;;;;;;;12.27;100.00;101154.28;6151162;23;20376;-66
2022/09/18 02:48:42;;;;;;;3.43;1.60;;;;;;;12.34;100.00;101165.88;6151040;23;20353;-67
2022/09/18 02:51:21;;;;;;;6.63;1.30;;;;;;;11.37;100.00;101007.53;6148718;23;20383;-68
2022/09/18 02:53:52;;;;;;;1.90;0.73;;;;;;;12.15;100.00;101151.38;6122538;23;20407;-68
2022/09/18 02:56:37;;;;;;;2.10;0.90;;;;;;;11.86;100.00;101147.09;6150716;23;20839;-67
2022/09/18 02:59:34;;;;;;;5.97;2.03;;;;;;;11.74;100.00;101151.34;6151189;23;20416;-67
2022/09/18 03:02:00;;;;;;;4.47;0.90;;;;;;;11.88;100.00;101145.03;6127421;23;20428;-67
2022/09/18 03:04:27;;;;;;;3.17;0.90;;;;;;;11.16;100.00;101052.25;6123218;23;20423;-67
2022/09/18 03:06:53;;;;;;;2.90;0.80;;;;;;;10.95;100.00;101034.34;6123741;23;20737;-66
2022/09/18 03:09:18;;;;;;;3.80;1.33;;;;;;;11.63;100.00;101142.00;6124816;23;20381;-67
2022/09/18 03:11:44;;;;;;;2.60;0.80;;;;;;;11.69;100.00;101143.06;6150631;23;20157;-67
2022/09/18 03:14:10;;;;;;;3.97;1.10;;;;;;;10.91;100.00;101034.97;6150429;23;20176;-67
2022/09/18 03:16:36;;;;;;;3.50;1.10;;;;;;;11.12;100.00;101031.38;6123546;23;20157;-68
2022/09/18 03:19:01;;;;;;;3.63;1.17;;;;;;;11.75;100.00;101107.31;6149529;23;20504;-67
2022/09/18 03:21:27;;;;;;;2.83;1.27;;;;;;;11.80;100.00;101126.34;6125101;23;20168;-66
2022/09/18 03:23:53;;;;;;;5.23;1.67;;;;;;;11.11;100.00;101010.91;6150444;23;20178;-67
2022/09/18 03:26:18;;;;;;;3.70;1.00;;;;;;;11.31;100.00;101057.50;6122420;23;20165;-67
2022/09/18 03:28:44;;;;;;;4.43;1.40;;;;;;;11.74;100.00;101119.94;6149823;23;20153;-66
2022/09/18 03:31:10;;;;;;;3.00;1.17;;;;;;;11.24;100.00;101013.66;6150299;23;20596;-66
2022/09/18 03:33:36;;;;;;;6.90;1.20;;;;;;;11.82;100.00;101075.09;6123712;23;20504;-66
2022/09/18 03:36:02;;;;;;;7.87;1.60;;;;;;;11.98;100.00;101072.91;6149405;23;20381;-67
2022/09/18 03:38:28;;;;;;;4.83;1.50;;;;;;;11.36;100.00;100979.84;6121525;23;20377;-66
2022/09/18 03:40:53;;;;;;;6.73;1.37;;;;;;;11.78;100.00;101012.88;6151127;23;21036;-67
2022/09/18 03:43:19;;;;;;;5.43;1.33;;;;;;;12.36;100.00;101093.91;6124682;23;20165;-67
2022/09/18 03:45:44;;;;;;;7.70;1.40;;;;;;;12.38;100.00;101101.75;6149645;23;20164;-66
2022/09/18 03:48:10;;;;;;;4.93;1.07;;;;;;;12.38;100.00;101094.53;6123418;23;20188;-68
2022/09/18 03:50:35;;;;;;;5.03;1.33;;;;;;;11.74;100.00;100990.94;6150743;23;20857;-66
2022/09/18 03:53:00;;;;;;;3.43;1.30;;;;;;;12.56;100.00;101115.44;6149394;23;20163;-67
2022/09/18 03:55:26;;;;;;;5.53;1.50;;;;;;;11.96;100.00;101012.31;6150855;23;20223;-67
2022/09/18 03:57:51;;;;;;;2.00;0.97;;;;;;;12.55;100.00;101105.69;6148652;23;20150;-67
2022/09/18 04:00:17;;;;;;;4.23;1.30;;;;;;;12.10;100.00;101018.56;6123859;23;20204;-68
2022/09/18 04:02:43;;;;;;;5.00;1.60;;;;;;;12.50;100.00;101085.81;6148339;23;20508;-67
2022/09/18 04:05:09;;;;;;;4.53;0.90;;;;;;;12.34;100.00;101073.59;6149908;23;20195;-67
2022/09/18 04:07:35;;;;;;;7.10;1.60;;;;;;;12.60;100.00;101103.22;6149559;23;20380;-67
2022/09/18 04:10:00;;;;;;;4.37;1.70;;;;;;;11.75;100.00;100973.78;6148796;23;20752;-67
2022/09/18 04:12:26;;;;;;;4.43;1.10;;;;;;;12.41;100.00;101075.28;6149924;23;20164;-67
2022/09/18 04:14:51;;;;;;;5.50;1.83;;;;;;;12.54;100.00;101089.78;6150693;23;20256;-67
2022/09/18 04:17:17;;;;;;;3.57;1.30;;;;;;;12.39;100.00;101063.91;6150128;23;20180;-67
2022/09/18 04:19:42;;;;;;;6.10;1.20;;;;;;;12.35;100.00;101078.78;6150703;23;20176;-66
2022/09/18 04:22:08;;;;;;;3.00;1.10;;;;;;;12.37;100.00;101087.47;6149470;23;20158;-66
2022/09/18 04:24:35;;;;;;;2.17;1.00;;;;;;;12.37;100.00;101084.78;6123996;23;20181;-67
2022/09/18 04:27:00;;;;;;;4.43;1.00;;;;;;;11.32;100.00;100935.63;6125207;23;20679;-67
2022/09/18 04:29:26;;;;;;;1.63;0.77;;;;;;;12.19;100.00;101087.25;6125713;23;20377;-67
2022/09/18 04:31:51;;;;;;;3.30;0.80;;;;;;;11.89;100.00;101038.34;6124112;23;20396;-67
2022/09/18 04:34:17;;;;;;;3.20;0.97;;;;;;;12.12;100.00;101103.38;6124986;23;20181;-67
2022/09/18 04:36:42;;;;;;;5.60;1.23;;;;;;;11.46;100.00;101009.03;6125039;23;20157;-68
2022/09/18 04:39:08;;;;;;;6.13;1.40;;;;;;;11.79;100.00;101115.81;6151000;23;20177;-67
2022/09/18 04:41:33;;;;;;;4.47;1.30;;;;;;;11.69;100.00;101130.44;6151253;23;20153;-68
2022/09/18 04:43:59;;;;;;;4.17;1.13;;;;;;;11.62;100.00;101131.44;6124172;23;20668;-67
2022/09/18 04:46:24;;;;;;;3.43;1.10;;;;;;;11.39;100.00;101081.50;6150739;23;20256;-67
2022/09/18 04:48:50;;;;;;;5.70;1.60;;;;;;;11.32;100.00;101061.84;6150346;23;20244;-67
2022/09/18 04:51:15;;;;;;;2.00;0.80;;;;;;;10.66;100.00;100964.81;6149056;23;20696;-67
2022/09/18 04:53:40;;;;;;;5.13;0.90;;;;;;;11.83;100.00;101143.94;6149242;23;20230;-67
2022/09/18 04:56:06;;;;;;;2.90;0.83;;;;;;;11.36;100.00;101044.31;6150284;23;20149;-67
2022/09/18 04:58:32;;;;;;;3.63;1.07;;;;;;;10.96;100.00;101024.44;6149794;23;20173;-67
2022/09/18 05:00:57;;;;;;;4.93;1.47;;;;;;;11.53;100.00;101126.22;6123035;23;20236;-67
2022/09/18 05:03:23;;;;;;;4.97;1.63;;;;;;;11.59;100.00;101094.22;6147313;23;20153;-67
2022/09/18 05:05:49;;;;;;;3.30;1.20;;;;;;;11.19;100.00;101022.31;6149376;23;20149;-66
2022/09/18 05:08:15;;;;;;;2.37;0.80;;;;;;;11.34;100.00;101051.75;6123179;23;20272;-67
2022/09/18 05:10:41;;;;;;;6.87;1.37;;;;;;;10.99;100.00;101032.09;6150593;23;20415;-67
2022/09/18 05:13:07;;;;;;;2.73;1.20;;;;;;;11.39;100.00;101127.16;6150654;23;20285;-67
2022/09/18 05:15:33;;;;;;;3.10;1.00;;;;;;;10.91;100.00;101033.09;6122416;23;20456;-67
2022/09/18 05:18:04;;;;;;;4.23;1.17;;;;;;;11.12;100.00;101079.69;6122692;23;20393;-64
2022/09/18 05:20:30;;;;;;;4.50;1.27;;;;;;;11.09;100.00;101051.38;6148164;23;20513;-67
2022/09/18 05:22:56;;;;;;;3.80;1.27;;;;;;;11.12;100.00;101060.91;6122740;23;20420;-68
2022/09/18 05:25:26;;;;;;;3.03;1.00;;;;;;;11.59;100.00;101145.25;6150572;23;20412;-68
2022/09/18 05:27:55;;;;;;;4.87;1.40;;;;;;;11.58;100.00;101155.19;6122867;23;20793;-68
2022/09/18 05:30:21;;;;;;;9.50;1.60;;;;;;;10.83;100.00;101036.75;6150099;23;20910;-68
2022/09/18 05:33:13;;;;;;;6.13;1.67;;;;;;;11.00;100.00;101074.88;6149649;23;20843;-67
2022/09/18 05:35:38;;;;;;;7.13;1.40;;;;;;;10.96;100.00;101059.34;6143344;23;20392;-67
2022/09/18 05:38:05;;;;;;;5.40;1.30;;;;;;;10.99;100.00;101069.69;6121973;23;20476;-67
2022/09/18 05:40:32;;;;;;;4.23;1.60;;;;;;;10.89;100.00;101070.03;6149927;23;20223;-67
2022/09/18 05:42:58;;;;;;;3.63;1.03;;;;;;;11.59;100.00;101150.63;6122944;23;20471;-67
2022/09/18 05:45:24;;;;;;;5.57;1.27;;;;;;;11.08;100.00;101092.69;6123291;23;20451;-67
2022/09/18 05:47:58;;;;;;;7.60;1.70;;;;;;;10.62;100.00;101067.16;6149139;23;20153;-67
2022/09/18 05:50:25;;;;;;;6.43;1.20;;;;;;;11.59;100.00;101154.16;6148853;23;20368;-67
2022/09/18 05:53:02;;;;;;;9.30;1.90;;;;;;;11.21;100.00;101146.47;6148205;23;20804;-67
2022/09/18 05:55:29;;;;;;;6.63;1.73;;;;;;;11.06;100.00;101098.25;6121863;23;20919;-66
2022/09/18 05:57:55;;;;;;;8.07;1.90;;;;;;;10.59;100.00;101043.41;6123011;23;20424;-67
2022/09/18 06:00:22;;;;;;;7.13;3.10;;;;;;;11.07;100.00;101131.28;6150044;23;20519;-67
2022/09/18 06:02:56;;;;;;;6.73;1.93;;;;;;;10.39;100.00;101043.22;6122151;23;20389;-66
2022/09/18 06:05:22;;;;;;;9.13;1.83;;;;;;;9.60;100.00;100916.47;6144782;23;20595;-74
2022/09/18 06:07:48;;;;;;;11.30;1.50;;;;;;;10.30;100.00;101028.28;6147519;23;20401;-73
2022/09/18 06:10:14;;;;;;;3.73;1.70;;;;;;;9.34;100.00;100807.25;6124440;23;20377;-73
2022/09/18 06:12:39;;;;;;;8.07;1.70;;;;;;;10.79;100.00;101065.03;6122831;23;20393;-72
2022/09/18 06:15:05;;;;;;;3.53;1.20;;;;;;;10.45;100.00;101025.53;6150629;23;20157;-72
2022/09/18 06:17:31;;;;;;;4.87;1.30;;;;;;;9.64;100.00;100816.81;6123862;23;20949;-74
2022/09/18 06:19:58;;;;;;;4.30;1.30;;;;;;;9.78;100.00;100846.38;6126968;23;20462;-74
2022/09/18 06:22:23;;;;;;;5.37;1.40;;;;;;;9.45;100.00;100849.59;6125165;23;20180;-74
2022/09/18 06:24:48;;;;;;;5.87;1.30;;;;;;;9.77;100.00;100869.66;6152643;23;20401;-75
2022/09/18 06:27:14;;;;;;;6.60;1.73;;;;;;;10.53;100.00;100987.84;6152567;23;20632;-74
2022/09/18 06:29:39;;;;;;;5.40;1.57;;;;;;;8.92;100.00;100710.75;6153226;23;20616;-75
2022/09/18 06:32:05;;;;;;;3.07;1.10;;;;;;;9.24;100.00;100733.47;6150955;23;20245;-74
2022/09/18 06:34:30;;;;;;;4.73;1.80;;;;;;;9.01;100.00;100765.78;6126066;23;20165;-74
2022/09/18 06:36:56;;;;;;;7.50;2.07;;;;;;;9.89;100.00;100883.34;6125702;23;20176;-74
2022/09/18 06:39:21;;;;;;;4.97;1.50;;;;;;;8.98;100.00;100699.28;6123887;23;20256;-75
2022/09/18 06:41:47;;;;;;;4.27;1.40;;;;;;;10.26;100.00;100924.28;6150895;23;20656;-75
2022/09/18 06:44:12;;;;;;;2.70;1.20;;;;;;;11.35;100.00;101109.78;6124878;23;20636;-75
2022/09/18 06:46:37;;;;;;;8.10;1.57;;;;;;;10.02;100.00;100879.97;6152018;23;20568;-74
2022/09/18 06:49:03;;;;;;;3.00;1.40;;;;;;;9.55;100.00;100863.50;6150683;23;20142;-75
2022/09/18 06:51:28;;;;;;;6.90;1.43;;;;;;;11.77;100.00;101197.47;6149801;23;20181;-75
2022/09/18 06:53:54;;;;;;;7.20;1.53;;;;;;;9.95;100.00;100904.00;6150719;23;20160;-76
2022/09/18 06:56:19;;;;;;;3.80;1.80;;;;;;;11.92;100.00;101178.56;6147684;23;20177;-75
2022/09/18 06:58:45;;;;;;;3.80;1.40;;;;;;;9.85;100.00;100834.69;6144739;23;20172;-77
2022/09/18 07:01:10;;;;;;;5.03;1.60;;;;;;;11.78;100.00;101131.09;6122574;23;20161;-76
2022/09/18 07:03:35;;;;;;;5.63;1.67;;;;;;;10.19;100.00;100843.81;6148323;23;20172;-76
2022/09/18 07:06:01;;;;;;;4.17;1.50;;;;;;;9.89;100.00;100795.78;6146486;23;20216;-75
2022/09/18 07:08:26;;;;;;;4.53;2.07;;;;;;;12.27;100.00;101175.81;6147261;23;20663;-74
2022/09/18 07:10:52;;;;;;;4.70;1.40;;;;;;;9.76;100.00;100795.69;6150938;23;20149;-74
2022/09/18 07:13:17;;;;;;;6.90;1.50;;;;;;;9.79;100.00;100783.75;6147234;23;20910;-74
2022/09/18 07:15:46;;;;;;;4.17;1.30;;;;;;;10.52;100.00;100905.72;6149598;23;20171;-74
2022/09/18 07:18:12;;;;;;;4.40;1.50;;;;;;;9.88;100.00;100747.75;6122910;23;20404;-76
2022/09/18 07:20:40;;;;;;;3.87;1.37;;;;;;;11.31;100.00;101031.50;6122829;23;20968;-75
2022/09/18 07:23:05;;;;;;;8.63;1.70;;;;;;;10.52;100.00;100870.84;6120006;23;20893;-83
2022/09/18 07:25:32;;;;;;;10.10;1.37;;;;;;;10.01;100.00;100790.72;6123283;23;20411;-74
2022/09/18 07:28:06;;;;;;;6.40;1.60;;;;;;;9.86;100.00;100763.19;6119714;23;20161;-74
2022/09/18 07:30:32;;;;;;;4.67;1.27;;;;;;;9.85;100.00;100686.53;6123768;23;20830;-74
2022/09/18 07:33:00;;;;;;;4.07;1.23;;;;;;;12.32;100.00;101173.31;6120534;23;20439;-73
2022/09/18 07:35:26;;;;;;;3.30;1.03;;;;;;;9.95;100.00;100753.97;6124358;23;20409;-74
2022/09/18 07:37:55;;;;;;;9.00;1.43;;;;;;;10.21;100.00;100822.97;6148778;23;20428;-73
2022/09/18 07:40:20;;;;;;;10.80;1.60;;;;;;;10.38;100.00;100902.09;6149212;23;20223;-73
2022/09/18 07:42:46;;;;;;;5.87;1.80;;;;;;;12.02;100.00;101167.44;6121192;23;20384;-75
2022/09/18 07:45:12;;;;;;;5.53;1.30;;;;;;;10.88;100.00;100987.03;6146757;23;20202;-75
2022/09/18 07:47:37;;;;;;;6.80;1.20;;;;;;;12.34;100.00;101139.00;6123767;23;20240;-73
2022/09/18 07:50:03;;;;;;;9.20;2.00;;;;;;;11.28;100.00;100988.06;6122527;23;20385;-72
2022/09/18 07:52:28;;;;;;;4.20;1.03;;;;;;;12.25;100.00;101142.06;6120221;23;20160;-73
2022/09/18 07:54:54;;;;;;;6.10;1.37;;;;;;;12.16;100.00;101131.50;6123324;23;20167;-72
2022/09/18 07:57:19;;;;;;;6.07;1.70;;;;;;;12.32;100.00;101157.19;6148114;23;20199;-73
2022/09/18 07:59:44;;;;;;;5.40;2.33;;;;;;;12.27;100.00;101169.59;6146762;23;20181;-73
2022/09/18 08:02:11;;;;;;;6.93;1.67;;;;;;;11.45;100.00;101078.03;6146681;23;20197;-73
2022/09/18 08:04:37;;;;;;;6.10;1.50;;;;;;;12.11;100.00;101168.91;6124350;23;20204;-71
2022/09/18 08:07:03;;;;;;;9.70;2.33;;;;;;;12.10;100.00;101185.25;6148388;23;20893;-71
2022/09/18 08:09:28;;;;;;;6.73;1.70;;;;;;;12.31;100.00;101206.63;6122825;23;20675;-71
2022/09/18 08:11:54;;;;;;;7.17;1.40;;;;;;;11.89;100.00;101187.03;6145886;23;20481;-72
2022/09/18 08:14:20;;;;;;;4.73;1.37;;;;;;;12.08;100.00;101192.69;6147674;23;20176;-71
2022/09/18 08:16:46;;;;;;;6.43;1.30;;;;;;;11.20;100.00;101058.06;6119763;23;20173;-73
2022/09/18 08:19:11;;;;;;;10.57;1.53;;;;;;;11.35;100.00;101066.81;6145845;23;20251;-74
2022/09/18 08:21:37;;;;;;;6.13;1.10;;;;;;;11.21;100.00;101041.75;6118516;23;20610;-75
2022/09/18 08:24:03;;;;;;;4.70;1.30;;;;;;;11.96;100.00;101119.84;6148304;23;20156;-75
2022/09/18 08:26:28;;;;;;;4.47;1.57;;;;;;;11.27;100.00;101013.28;6121981;23;20205;-76
2022/09/18 08:28:54;;;;;;;4.87;1.37;;;;;;;11.60;100.00;101056.41;6147191;23;20432;-76
2022/09/18 08:31:19;;;;;;;5.80;1.57;;;;;;;11.92;100.00;101086.34;6147638;23;20203;-77
2022/09/18 08:33:45;;;;;;;5.73;1.37;;;;;;;10.75;100.00;100936.81;6118919;23;20161;-77
2022/09/18 08:36:10;;;;;;;5.93;1.60;;;;;;;12.16;100.00;101173.69;6147425;23;20173;-76
2022/09/18 08:38:36;;;;;;;5.73;1.50;;;;;;;10.73;100.00;100937.03;6149004;23;20156;-76
2022/09/18 08:41:36;;;;;;;7.93;1.60;;;;;;;12.18;100.00;101134.00;6146608;23;20565;-77
2022/09/18 08:44:15;;;;;;;11.23;1.70;;;;;;;12.43;100.00;101132.38;6122022;23;20228;-76
2022/09/18 08:46:49;;;;;;;4.77;1.67;;;;;;;10.30;100.00;100829.91;6148466;23;20393;-76
2022/09/18 08:49:29;;;;;;;7.00;1.67;;;;;;;12.29;100.00;101172.91;6146168;23;20361;-76
2022/09/18 08:52:02;;;;;;;4.93;1.37;;;;;;;11.06;100.00;100934.50;6148111;23;20381;-77
2022/09/18 08:54:58;;;;;;;6.57;1.43;;;;;;;12.57;100.00;101149.38;6125624;23;20389;-76
2022/09/18 08:57:27;;;;;;;4.37;1.20;;;;;;;11.92;100.00;101065.66;6150049;23;20377;-76
2022/09/18 09:00:00;;;;;;;9.57;1.60;;;;;;;10.34;100.00;100796.28;6125097;23;20580;-76
2022/09/18 09:02:37;;;;;;;6.10;1.50;;;;;;;10.97;100.00;100796.13;6123756;23;20376;-76
2022/09/18 09:05:18;;;;;;;5.63;1.20;;;;;;;11.63;100.00;100859.03;6151489;23;20371;-76
2022/09/18 09:08:00;;;;;;;6.90;1.60;;;;;;;13.60;100.00;101116.66;6148979;23;20368;-77
2022/09/18 09:10:43;;;;;;;5.10;1.10;;;;;;;13.91;100.00;101098.88;6151266;23;20365;-76
2022/09/18 09:13:40;;;;;;;6.30;1.47;;;;;;;13.79;100.00;101094.16;6150624;23;20365;-76
2022/09/18 09:16:50;;;;;;;4.63;1.13;;;;;;;13.98;100.00;101087.03;6125094;23;20416;-77
2022/09/18 09:19:49;;;;;;;4.13;1.10;;;;;;;14.13;100.00;101075.97;6060878;23;20563;-78
2022/09/18 09:22:36;;;;;;;6.30;1.33;;;;;;;12.07;100.00;100734.81;6058721;23;20507;-77
2022/09/18 09:25:22;;;;;;;3.30;1.20;;;;;;;14.32;100.00;101060.69;6135587;23;20451;-77
2022/09/18 09:27:57;;;;;;;4.13;1.23;;;;;;;12.95;100.00;100878.75;6122806;23;20879;-76
2022/09/18 09:30:23;;;;;;;6.33;1.33;;;;;;;12.81;100.00;100835.72;6149138;23;20448;-76
2022/09/18 09:32:54;;;;;;;5.33;1.63;;;;;;;13.36;100.00;100952.97;6122888;23;20488;-74
2022/09/18 09:35:20;;;;;;;5.37;1.73;;;;;;;13.81;100.00;101110.13;6149683;23;20216;-75
2022/09/18 09:37:47;;;;;;;5.73;1.53;;;;;;;11.49;100.00;100730.09;6124190;23;20392;-76
2022/09/18 09:40:31;;;;;;;5.93;2.70;;;;;;;14.03;100.00;101118.75;6151073;23;20196;-76
2022/09/18 09:43:09;;;;;;;3.87;1.50;;;;;;;11.82;100.00;100733.78;6123458;23;20416;-76
2022/09/18 09:45:46;;;;;;;9.47;1.27;;;;;;;13.51;100.00;101016.34;6150557;23;20408;-77
2022/09/18 09:48:29;;;;;;;3.37;1.33;;;;;;;13.23;100.00;100948.44;6151048;23;20396;-77
2022/09/18 09:51:04;;;;;;;4.00;1.10;;;;;;;14.41;100.00;101080.97;6123527;23;20376;-77
2022/09/18 09:53:29;;;;;;;3.67;0.93;;;;;;;13.17;100.00;100860.44;6123774;23;20407;-77
2022/09/18 09:56:17;;;;;;;3.60;1.00;;;;;;;13.78;100.00;100941.53;6124512;23;20416;-76
2022/09/18 09:58:59;;;;;;;2.67;0.93;;;;;;;14.37;100.00;101033.03;6151243;23;20530;-76
2022/09/18 10:01:38;;;;;;;3.73;1.10;;;;;;;13.76;100.00;100932.00;6150591;23;20377;-76
2022/09/18 10:04:32;;;;;;;4.17;1.33;;;;;;;14.62;100.00;101092.47;6150162;23;20369;-76
2022/09/18 10:07:16;;;;;;;3.50;1.20;;;;;;;11.84;100.00;100804.28;6149038;23;20424;-76
2022/09/18 10:09:56;;;;;;;2.90;1.20;;;;;;;13.51;100.00;101131.34;6150242;23;20361;-75
2022/09/18 10:12:45;;;;;;;4.87;0.87;;;;;;;13.16;100.00;101107.34;6149423;23;20459;-75
2022/09/18 10:15:20;;;;;;;2.97;1.10;;;;;;;13.62;100.00;101106.47;6150911;23;20443;-75
2022/09/18 10:17:48;;;;;;;4.97;1.10;;;;;;;11.37;100.00;100698.69;6149938;23;20379;-77
2022/09/18 10:20:24;;;;;;;5.10;1.10;;;;;;;12.76;100.00;100902.03;6150286;23;20425;-76
2022/09/18 10:22:50;;;;;;;3.37;1.00;;;;;;;12.40;100.00;100817.25;6122895;23;20402;-77
2022/09/18 10:25:38;;;;;;;3.43;1.00;;;;;;;14.68;100.00;101083.50;6151016;23;20480;-77
2022/09/18 10:28:04;;;;;;;4.10;1.00;;;;;;;12.61;100.00;100701.28;6146192;23;20393;-78
2022/09/18 10:30:30;;;;;;;7.93;2.37;;;;;;;15.20;100.00;101110.28;6122372;23;20388;-79
2022/09/18 10:32:55;;;;;;;2.60;1.00;;;;;;;14.77;100.00;101011.16;6148809;23;20164;-78
2022/09/18 10:35:40;;;;;;;4.30;0.93;;;;;;;15.17;100.00;101070.19;6121649;23;20906;-76
2022/09/18 10:38:27;;;;;;;5.13;1.10;;;;;;;14.94;100.00;101052.75;6124204;23;20149;-77
2022/09/18 10:40:52;;;;;;;8.13;1.97;;;;;;;13.79;100.00;100829.13;6123595;23;20424;-77
2022/09/18 10:43:18;;;;;;;3.67;1.43;;;;;;;14.21;100.00;100894.13;6123013;23;20388;-77
2022/09/18 10:45:51;;;;;;;7.00;1.50;;;;;;;12.98;100.00;100714.09;6150785;23;20173;-77
2022/09/18 10:48:23;;;;;;;6.67;1.40;;;;;;;13.03;100.00;100760.84;6150136;23;20618;-78
2022/09/18 10:50:54;;;;;;;5.10;1.20;;;;;;;13.39;100.00;100860.94;6149673;23;20618;-77
2022/09/18 10:53:22;;;;;;;5.87;1.50;;;;;;;14.67;100.00;101074.59;6123532;23;20473;-77
2022/09/18 10:55:49;;;;;;;5.13;1.50;;;;;;;13.47;100.00;100890.31;6150432;23;20419;-75
2022/09/18 10:58:15;;;;;;;7.00;1.97;;;;;;;12.11;100.00;100676.06;6152308;23;20644;-76
2022/09/18 11:00:47;;;;;;;3.60;1.30;;;;;;;13.86;100.00;100934.25;6125944;23;21114;-75
2022/09/18 11:03:21;;;;;;;11.83;1.80;;;;;;;13.39;100.00;100888.69;6151244;23;20365;-77
2022/09/18 11:05:58;;;;;;;5.73;1.47;;;;;;;13.09;100.00;100813.03;6122226;23;20416;-75
2022/09/18 11:08:27;;;;;;;7.27;1.53;;;;;;;12.61;100.00;100751.56;6119505;23;20807;-79
2022/09/18 11:11:01;;;;;;;4.80;1.60;;;;;;;14.82;100.00;101116.63;6122177;23;20389;-74
2022/09/18 11:13:28;;;;;;;8.63;1.03;;;;;;;12.67;100.00;100764.19;6124055;23;20456;-79
2022/09/18 11:15:57;;;;;;;5.73;0.93;;;;;;;13.24;100.00;100729.22;6124074;23;20416;-77
2022/09/18 11:18:25;;;;;;;3.13;1.10;;;;;;;15.40;100.00;101093.84;6149747;23;20929;-77
2022/09/18 11:20:54;;;;;;;3.43;1.10;;;;;;;13.72;100.00;100732.16;6149843;23;20515;-79
2022/09/18 11:23:31;;;;;;;4.60;1.40;;;;;;;15.23;100.00;100921.50;6150315;23;20398;-78
2022/09/18 11:26:26;;;;;;;4.63;1.23;;;;;;;13.57;100.00;100758.63;6150875;23;20879;-80
2022/09/18 11:29:16;;;;;;;5.73;1.40;;;;;;;14.33;100.00;100970.59;6144831;23;20399;-79
2022/09/18 11:31:46;;;;;;;5.03;1.50;;;;;;;13.07;100.00;100798.94;6149962;23;20372;-79